TAF Text Data
IDs:
Format:
Raw Decoded Include METAR

Data at: 1701 UTC 20 May 2022

VVDN 201630Z VRB02KT 9999 FEW015 27/25 Q1008 NOSIG

TAF VVDN 201100Z 2012/2112 10006KT 9999 SCT013 SCT060
  TEMPO 2012/2015 TS SCT013 FEW017CB SCT060
  TEMPO 2108/2112 TS SCT013 FEW017CB SCT060